createdAt,value
2023-02-16T00:02:42.066Z,61.93
2023-02-16T00:07:49.662Z,62.19
2023-02-16T00:13:13.340Z,62.09
2023-02-16T00:18:21.702Z,61.95
2023-02-16T00:23:28.680Z,62.03
2023-02-16T00:28:35.962Z,61.98
2023-02-16T00:33:43.383Z,62.10
2023-02-16T00:38:50.844Z,62.20
2023-02-16T00:43:58.295Z,62.20
2023-02-16T00:49:05.604Z,62.04
2023-02-16T00:54:13.687Z,62.11
2023-02-16T00:59:22.939Z,62.10
2023-02-16T01:04:30.547Z,62.04
2023-02-16T01:09:55.809Z,62.18
2023-02-16T01:15:03.291Z,62.07
2023-02-16T01:20:16.166Z,62.15
2023-02-16T01:25:23.530Z,61.98
2023-02-16T01:30:30.921Z,61.83
2023-02-16T01:35:38.110Z,61.83
2023-02-16T01:40:47.332Z,61.99
2023-02-16T01:46:00.853Z,62.02
2023-02-16T01:51:10.207Z,61.76
2023-02-16T01:56:30.803Z,61.91
2023-02-16T02:01:46.261Z,62.06
2023-02-16T02:06:53.653Z,61.90
2023-02-16T02:12:05.623Z,61.88
2023-02-16T02:17:14.521Z,61.94
2023-02-16T02:22:54.663Z,61.85
2023-02-16T02:28:09.425Z,61.65
2023-02-16T02:33:26.345Z,61.77
2023-02-16T02:38:39.193Z,61.80
2023-02-16T02:43:48.004Z,61.76
2023-02-16T02:48:55.682Z,61.89
2023-02-16T02:54:22.714Z,61.75
2023-02-16T02:59:49.774Z,61.99
2023-02-16T03:04:59.513Z,61.71
2023-02-16T03:10:21.074Z,61.70
2023-02-16T03:21:47.251Z,61.80
2023-02-16T03:27:13.197Z,61.84
2023-02-16T03:32:20.563Z,61.69
2023-02-16T03:37:27.807Z,61.64
2023-02-16T03:42:35.033Z,61.56
2023-02-16T03:47:42.323Z,61.67
2023-02-16T03:52:49.976Z,61.64
2023-02-16T03:57:57.045Z,61.67
2023-02-16T04:03:04.296Z,61.71
2023-02-16T04:08:11.747Z,61.73
2023-02-16T04:13:18.707Z,61.74
2023-02-16T04:18:25.688Z,61.64
2023-02-16T04:23:32.879Z,61.77
2023-02-16T04:28:40.020Z,61.50
2023-02-16T04:33:47.246Z,61.72
2023-02-16T04:38:54.403Z,61.69
2023-02-16T04:44:01.982Z,61.53
2023-02-16T04:49:09.133Z,61.48
2023-02-16T04:54:16.314Z,61.67
2023-02-16T04:59:23.572Z,61.67
2023-02-16T05:04:31.247Z,61.46
2023-02-16T05:09:38.672Z,61.62
2023-02-16T05:14:46.809Z,61.63
2023-02-16T05:19:55.282Z,61.52
2023-02-16T05:25:02.808Z,61.53
2023-02-16T05:30:10.818Z,61.61
2023-02-16T05:35:18.162Z,61.55
2023-02-16T05:40:25.394Z,61.37
2023-02-16T05:45:32.496Z,61.66
2023-02-16T05:50:39.827Z,61.49
2023-02-16T05:55:47.433Z,61.40
2023-02-16T06:00:54.941Z,61.29
2023-02-16T06:06:02.645Z,61.55
2023-02-16T06:11:30.261Z,61.56
2023-02-16T06:16:37.903Z,61.49
2023-02-16T06:21:45.119Z,61.51
2023-02-16T06:26:52.344Z,61.55
2023-02-16T06:31:59.443Z,61.49
2023-02-16T06:37:06.733Z,61.51
2023-02-16T06:42:14.037Z,61.56
2023-02-16T06:47:21.689Z,61.42
2023-02-16T06:52:28.948Z,61.15
2023-02-16T06:57:36.546Z,61.37
2023-02-16T07:02:46.713Z,61.39
2023-02-16T07:07:54.837Z,61.13
2023-02-16T07:13:02.287Z,61.18
2023-02-16T07:18:09.732Z,61.20
2023-02-16T07:23:16.859Z,61.19
2023-02-16T07:28:24.060Z,61.37
2023-02-16T07:33:31.337Z,61.14
2023-02-16T07:38:39.285Z,61.03
2023-02-16T07:43:46.338Z,60.98
2023-02-16T07:48:53.622Z,60.85
2023-02-16T07:54:01.792Z,60.67
2023-02-16T07:59:09.052Z,60.68
2023-02-16T08:04:16.753Z,60.71
2023-02-16T08:09:24.352Z,60.51
2023-02-16T08:14:31.934Z,60.64
2023-02-16T08:19:39.665Z,60.73
2023-02-16T08:24:47.107Z,60.94
2023-02-16T08:29:54.860Z,60.71
2023-02-16T08:35:02.178Z,60.73
2023-02-16T08:40:10.599Z,60.88
2023-02-16T08:45:18.729Z,60.75
2023-02-16T08:50:26.177Z,60.81
2023-02-16T08:55:33.654Z,60.84
2023-02-16T09:00:43.545Z,60.71
2023-02-16T09:05:52.028Z,60.78
2023-02-16T09:11:03.387Z,60.78
2023-02-16T09:16:12.601Z,60.63
2023-02-16T09:21:21.797Z,60.54
2023-02-16T09:26:29.652Z,60.73
2023-02-16T09:31:37.760Z,60.72
2023-02-16T09:36:45.185Z,60.76
2023-02-16T09:42:09.654Z,60.70
2023-02-16T09:47:22.448Z,60.68
2023-02-16T09:52:32.709Z,60.64
2023-02-16T09:57:44.819Z,60.80
2023-02-16T10:02:55.145Z,60.65
2023-02-16T10:08:06.043Z,60.89
2023-02-16T10:13:17.302Z,60.70
2023-02-16T10:18:28.825Z,60.66
2023-02-16T10:23:46.775Z,60.64
2023-02-16T10:28:56.034Z,60.74
2023-02-16T10:34:10.439Z,60.72
2023-02-16T10:39:24.169Z,60.93
2023-02-16T10:44:39.750Z,60.60
2023-02-16T10:49:48.319Z,60.66
2023-02-16T10:54:55.583Z,60.57
2023-02-16T11:00:04.168Z,60.66
2023-02-16T11:05:24.671Z,60.81
2023-02-16T11:10:38.662Z,60.84
2023-02-16T11:15:45.854Z,60.78
2023-02-16T11:20:56.437Z,60.81
2023-02-16T11:26:06.034Z,60.80
2023-02-16T11:31:19.108Z,60.92
2023-02-16T11:36:30.371Z,60.79
2023-02-16T11:41:38.121Z,60.71
2023-02-16T11:46:45.426Z,61.00
2023-02-16T11:51:52.944Z,60.83
2023-02-16T11:57:09.636Z,60.72
2023-02-16T12:02:37.485Z,60.96
2023-02-16T12:07:48.598Z,60.87
2023-02-16T12:13:03.381Z,60.82
2023-02-16T12:18:17.944Z,60.80
2023-02-16T12:23:35.904Z,60.77
2023-02-16T12:28:48.537Z,60.55
2023-02-16T12:34:02.303Z,60.77
2023-02-16T12:39:14.982Z,60.58
2023-02-16T12:44:27.652Z,61.02
2023-02-16T12:49:42.904Z,60.98
2023-02-16T12:54:52.082Z,60.86
2023-02-16T13:00:00.292Z,60.84
2023-02-16T13:05:11.188Z,60.79
2023-02-16T13:10:20.175Z,60.75
2023-02-16T13:15:29.040Z,61.04
2023-02-16T13:20:36.639Z,60.78
2023-02-16T13:25:51.088Z,60.70
2023-02-16T13:31:13.003Z,60.85
2023-02-16T13:36:34.460Z,60.83
2023-02-16T13:41:59.237Z,60.58
2023-02-16T13:47:06.943Z,60.76
2023-02-16T13:52:29.248Z,60.52
2023-02-16T13:57:58.738Z,60.62
2023-02-16T14:03:12.394Z,60.64
2023-02-16T14:08:21.071Z,60.59
2023-02-16T14:13:29.827Z,60.88
2023-02-16T14:18:40.158Z,60.53
2023-02-16T14:23:47.289Z,60.87
2023-02-16T14:29:01.581Z,60.87
2023-02-16T14:34:14.760Z,60.81
2023-02-16T14:39:23.622Z,60.76
2023-02-16T14:44:39.530Z,60.58
2023-02-16T14:50:04.454Z,60.64
2023-02-16T14:55:23.568Z,60.49
2023-02-16T15:00:35.237Z,60.61
2023-02-16T15:05:42.875Z,60.71
2023-02-16T15:10:54.606Z,60.85
2023-02-16T15:16:04.128Z,60.79
2023-02-16T15:21:17.998Z,60.55
2023-02-16T15:26:26.560Z,60.59
2023-02-16T15:31:34.283Z,60.82
2023-02-16T15:36:42.646Z,60.69
2023-02-16T15:41:51.584Z,60.84
2023-02-16T15:47:09.871Z,60.74
2023-02-16T15:52:18.824Z,60.81
2023-02-16T15:57:31.319Z,60.63
2023-02-16T16:02:40.280Z,60.90
2023-02-16T16:07:47.962Z,60.81
2023-02-16T16:12:59.904Z,60.92
2023-02-16T16:18:07.781Z,60.81
2023-02-16T16:23:27.376Z,61.05
2023-02-16T16:28:38.533Z,60.93
2023-02-16T16:33:56.234Z,60.87
2023-02-16T16:39:12.534Z,61.06
2023-02-16T16:44:33.398Z,60.95
2023-02-16T16:49:47.266Z,60.94
2023-02-16T16:54:54.897Z,61.40
2023-02-16T17:00:02.444Z,60.95
2023-02-16T17:05:10.484Z,61.02
2023-02-16T17:10:18.467Z,61.35
2023-02-16T17:15:33.177Z,61.11
2023-02-16T17:20:40.213Z,61.12
2023-02-16T17:25:47.788Z,61.25
2023-02-16T17:30:54.971Z,61.54
2023-02-16T17:36:04.085Z,61.27
2023-02-16T17:41:18.723Z,61.22
2023-02-16T17:46:27.240Z,61.30
2023-02-16T17:51:36.699Z,61.52
2023-02-16T17:56:46.569Z,61.44
2023-02-16T18:01:53.862Z,61.39
2023-02-16T18:07:01.341Z,61.24
2023-02-16T18:12:09.329Z,61.52
2023-02-16T18:17:17.014Z,61.38
2023-02-16T18:22:24.296Z,61.37
2023-02-16T18:27:31.612Z,61.36
2023-02-16T18:32:39.014Z,61.62
2023-02-16T18:37:46.587Z,61.61
2023-02-16T18:42:53.718Z,61.66
2023-02-16T18:48:01.146Z,61.44
2023-02-16T18:53:08.471Z,61.50
2023-02-16T18:58:16.116Z,61.60
2023-02-16T19:03:23.321Z,61.52
2023-02-16T19:08:30.798Z,61.75
2023-02-16T19:13:38.210Z,61.55
2023-02-16T19:18:45.729Z,61.53
2023-02-16T19:23:52.974Z,61.59
2023-02-16T19:29:00.114Z,61.93
2023-02-16T19:34:07.434Z,61.54
2023-02-16T19:39:14.895Z,61.78
2023-02-16T19:44:22.382Z,61.66
2023-02-16T19:49:30.132Z,61.75
2023-02-16T19:54:37.687Z,61.71
2023-02-16T19:59:45.174Z,61.75
2023-02-16T20:04:52.807Z,61.85
2023-02-16T20:10:00.097Z,61.70
2023-02-16T20:15:07.897Z,61.78
2023-02-16T20:20:15.912Z,61.71
2023-02-16T20:25:23.337Z,61.79
2023-02-16T20:30:31.140Z,61.82
2023-02-16T20:35:38.523Z,61.79
2023-02-16T20:40:46.146Z,61.45
2023-02-16T20:45:53.645Z,61.99
2023-02-16T20:51:02.514Z,61.58
2023-02-16T20:56:10.906Z,61.77
2023-02-16T21:01:21.234Z,61.66
2023-02-16T21:06:29.355Z,61.99
2023-02-16T21:11:36.658Z,61.56
2023-02-16T21:16:44.075Z,61.83
2023-02-16T21:21:51.312Z,61.92
2023-02-16T21:26:58.282Z,61.81
2023-02-16T21:32:05.461Z,61.88
2023-02-16T21:37:12.893Z,61.77
2023-02-16T21:42:20.224Z,61.86
2023-02-16T21:47:45.153Z,61.87
2023-02-16T21:52:53.173Z,61.80
2023-02-16T21:58:00.583Z,61.69
2023-02-16T22:03:08.573Z,61.57
2023-02-16T22:08:15.801Z,61.97
2023-02-16T22:13:23.072Z,61.78
2023-02-16T22:18:30.435Z,61.83
2023-02-16T22:23:38.007Z,61.71
2023-02-16T22:28:45.193Z,61.77
2023-02-16T22:33:56.053Z,61.86
2023-02-16T22:39:03.226Z,61.66
2023-02-16T22:44:11.555Z,61.64
2023-02-16T22:49:19.085Z,61.48
2023-02-16T22:54:26.577Z,61.74
2023-02-16T22:59:33.944Z,61.87
2023-02-16T23:04:43.216Z,61.69
2023-02-16T23:09:50.754Z,61.67
2023-02-16T23:14:57.857Z,61.76
2023-02-16T23:20:05.412Z,61.78
2023-02-16T23:25:30.246Z,61.83
2023-02-16T23:30:37.408Z,61.93
2023-02-16T23:35:44.821Z,61.82
2023-02-16T23:40:58.798Z,61.81
2023-02-16T23:46:06.677Z,61.88
2023-02-16T23:51:14.513Z,61.73
2023-02-16T23:56:23.344Z,61.88
